BHS258 KPBI-MYGF
Flight info
| Callsign | BHS258 |
|---|---|
| Flight time | 0h 29m |
| Altitude | FL070 |
| Route | MIXAE BR63V ZFP |
| Aircraft | A748/M-SDFHY/C |
Departure
| Time | 2026-04-26 14:34 |
|---|---|
| Airport | Palm Beach International Airport (KPBI) |
Arrival
| Time | 2026-04-26 15:04 |
|---|---|
| Airport | Grand Bahama International Airport (MYGF) |
| Time | Latitude | Longitude | Altitude | Speed | Heading |
|---|---|---|---|---|---|
| 2026-04-26 14:13 | 26.68829 | -80.09380 | 28 ft | 0 kts | 159° |
| 2026-04-26 14:29 | 26.68827 | -80.09379 | 28 ft | 5 kts | 159° |
| 2026-04-26 14:30 | 26.68786 | -80.09385 | 28 ft | 13 kts | 208° |
| 2026-04-26 14:30 | 26.68735 | -80.09435 | 28 ft | 8 kts | 225° |
| 2026-04-26 14:30 | 26.68683 | -80.09494 | 28 ft | 7 kts | 235° |
| 2026-04-26 14:30 | 26.68688 | -80.09537 | 28 ft | 12 kts | 309° |
| 2026-04-26 14:31 | 26.68693 | -80.09604 | 28 ft | 12 kts | 227° |
| 2026-04-26 14:31 | 26.68644 | -80.09696 | 28 ft | 16 kts | 262° |
| 2026-04-26 14:31 | 26.68625 | -80.09841 | 28 ft | 21 kts | 262° |
| 2026-04-26 14:31 | 26.68605 | -80.10013 | 28 ft | 20 kts | 259° |
| 2026-04-26 14:32 | 26.68587 | -80.10149 | 28 ft | 17 kts | 270° |
| 2026-04-26 14:32 | 26.68574 | -80.10274 | 28 ft | 14 kts | 261° |
| 2026-04-26 14:32 | 26.68550 | -80.10416 | 28 ft | 22 kts | 251° |
| 2026-04-26 14:32 | 26.68457 | -80.10461 | 28 ft | 17 kts | 178° |
| 2026-04-26 14:33 | 26.68338 | -80.10462 | 28 ft | 18 kts | 181° |
| 2026-04-26 14:33 | 26.68299 | -80.10370 | 28 ft | 31 kts | 94° |
| 2026-04-26 14:33 | 26.68273 | -80.09893 | 28 ft | 90 kts | 95° |
| 2026-04-26 14:33 | 26.68246 | -80.09036 | 81 ft | 125 kts | 94° |
| 2026-04-26 14:34 | 26.68259 | -80.08036 | 417 ft | 133 kts | 92° |
| 2026-04-26 14:34 | 26.68276 | -80.06989 | 822 ft | 134 kts | 92° |
| 2026-04-26 14:34 | 26.68300 | -80.05953 | 1225 ft | 135 kts | 87° |
| 2026-04-26 14:34 | 26.68560 | -80.04932 | 1581 ft | 140 kts | 74° |
| 2026-04-26 14:35 | 26.68992 | -80.03929 | 1959 ft | 146 kts | 63° |
| 2026-04-26 14:35 | 26.69490 | -80.02924 | 2350 ft | 150 kts | 63° |
| 2026-04-26 14:35 | 26.69989 | -80.01878 | 2738 ft | 155 kts | 64° |
| 2026-04-26 14:35 | 26.70463 | -80.00791 | 3121 ft | 158 kts | 71° |
| 2026-04-26 14:36 | 26.70766 | -79.99605 | 3511 ft | 160 kts | 80° |
| 2026-04-26 14:36 | 26.70961 | -79.98369 | 3888 ft | 164 kts | 84° |
| 2026-04-26 14:36 | 26.71077 | -79.97079 | 4207 ft | 170 kts | 88° |
| 2026-04-26 14:36 | 26.71133 | -79.95741 | 4518 ft | 174 kts | 90° |
| 2026-04-26 14:37 | 26.71137 | -79.94374 | 4823 ft | 178 kts | 92° |
| 2026-04-26 14:37 | 26.71102 | -79.92981 | 5132 ft | 181 kts | 94° |
| 2026-04-26 14:37 | 26.71034 | -79.91566 | 5438 ft | 183 kts | 95° |
| 2026-04-26 14:37 | 26.70939 | -79.90139 | 5759 ft | 185 kts | 96° |
| 2026-04-26 14:38 | 26.70824 | -79.88701 | 6083 ft | 186 kts | 97° |
| 2026-04-26 14:38 | 26.70699 | -79.87268 | 6410 ft | 187 kts | 97° |
| 2026-04-26 14:38 | 26.70554 | -79.85823 | 6736 ft | 188 kts | 98° |
| 2026-04-26 14:38 | 26.70453 | -79.84855 | 6953 ft | 188 kts | 98° |
| 2026-04-26 14:39 | 26.70248 | -79.82914 | 7390 ft | 189 kts | 98° |
| 2026-04-26 14:39 | 26.70080 | -79.81377 | 7241 ft | 215 kts | 98° |
| 2026-04-26 14:39 | 26.69883 | -79.79637 | 7006 ft | 233 kts | 98° |
| 2026-04-26 14:39 | 26.69680 | -79.77830 | 6996 ft | 234 kts | 98° |
| 2026-04-26 14:40 | 26.69478 | -79.76022 | 7000 ft | 235 kts | 98° |
| 2026-04-26 14:40 | 26.69277 | -79.74211 | 7000 ft | 235 kts | 98° |
| 2026-04-26 14:40 | 26.69063 | -79.72410 | 7000 ft | 235 kts | 99° |
| 2026-04-26 14:40 | 26.68853 | -79.70603 | 7001 ft | 235 kts | 98° |
| 2026-04-26 14:41 | 26.68651 | -79.68797 | 6999 ft | 235 kts | 98° |
| 2026-04-26 14:41 | 26.68447 | -79.66981 | 7001 ft | 235 kts | 97° |
| 2026-04-26 14:41 | 26.68301 | -79.65168 | 7001 ft | 235 kts | 95° |
| 2026-04-26 14:41 | 26.68204 | -79.63346 | 7000 ft | 235 kts | 94° |
| 2026-04-26 14:42 | 26.68141 | -79.61519 | 7000 ft | 235 kts | 92° |
| 2026-04-26 14:42 | 26.68100 | -79.59699 | 7000 ft | 235 kts | 92° |
| 2026-04-26 14:42 | 26.68069 | -79.57872 | 7000 ft | 235 kts | 92° |
| 2026-04-26 14:42 | 26.68056 | -79.56045 | 7000 ft | 235 kts | 91° |
| 2026-04-26 14:43 | 26.68048 | -79.54216 | 6999 ft | 235 kts | 91° |
| 2026-04-26 14:43 | 26.68042 | -79.52389 | 7001 ft | 235 kts | 91° |
| 2026-04-26 14:43 | 26.68037 | -79.50562 | 7001 ft | 235 kts | 90° |
| 2026-04-26 14:43 | 26.68023 | -79.48749 | 6999 ft | 233 kts | 91° |
| 2026-04-26 14:44 | 26.67997 | -79.46938 | 7000 ft | 233 kts | 91° |
| 2026-04-26 14:44 | 26.67966 | -79.45131 | 7000 ft | 232 kts | 91° |
| 2026-04-26 14:44 | 26.67935 | -79.43327 | 7001 ft | 232 kts | 91° |
| 2026-04-26 14:44 | 26.67904 | -79.41531 | 7000 ft | 232 kts | 91° |
| 2026-04-26 14:45 | 26.67888 | -79.39729 | 7000 ft | 232 kts | 90° |
| 2026-04-26 14:45 | 26.67883 | -79.38528 | 7000 ft | 232 kts | 90° |
| 2026-04-26 14:45 | 26.67878 | -79.36135 | 6999 ft | 232 kts | 90° |
| 2026-04-26 14:45 | 26.67863 | -79.34337 | 7001 ft | 231 kts | 90° |
| 2026-04-26 14:46 | 26.67851 | -79.32537 | 7001 ft | 231 kts | 90° |
| 2026-04-26 14:46 | 26.67841 | -79.30735 | 7000 ft | 232 kts | 91° |
| 2026-04-26 14:46 | 26.67830 | -79.28942 | 7001 ft | 231 kts | 90° |
| 2026-04-26 14:46 | 26.67817 | -79.27143 | 7000 ft | 231 kts | 91° |
| 2026-04-26 14:47 | 26.67805 | -79.25361 | 7000 ft | 232 kts | 90° |
| 2026-04-26 14:47 | 26.67794 | -79.23549 | 7000 ft | 231 kts | 90° |
| 2026-04-26 14:47 | 26.67778 | -79.21749 | 7000 ft | 232 kts | 90° |
| 2026-04-26 14:47 | 26.67768 | -79.19951 | 7000 ft | 232 kts | 90° |
| 2026-04-26 14:48 | 26.67745 | -79.18149 | 7001 ft | 232 kts | 91° |
| 2026-04-26 14:48 | 26.67720 | -79.16358 | 7001 ft | 231 kts | 91° |
| 2026-04-26 14:48 | 26.67692 | -79.14558 | 6999 ft | 232 kts | 91° |
| 2026-04-26 14:48 | 26.67647 | -79.12759 | 7000 ft | 231 kts | 92° |
| 2026-04-26 14:49 | 26.67592 | -79.10961 | 6999 ft | 231 kts | 92° |
| 2026-04-26 14:49 | 26.67469 | -79.09176 | 7001 ft | 231 kts | 96° |
| 2026-04-26 14:49 | 26.67233 | -79.07400 | 7001 ft | 231 kts | 100° |
| 2026-04-26 14:49 | 26.66898 | -79.05642 | 7002 ft | 231 kts | 103° |
| 2026-04-26 14:50 | 26.66486 | -79.03904 | 7001 ft | 231 kts | 106° |
| 2026-04-26 14:50 | 26.66022 | -79.02182 | 7000 ft | 231 kts | 108° |
| 2026-04-26 14:50 | 26.65532 | -79.00493 | 6996 ft | 223 kts | 109° |
| 2026-04-26 14:50 | 26.65046 | -78.98900 | 6935 ft | 213 kts | 109° |
| 2026-04-26 14:51 | 26.64559 | -78.97349 | 6731 ft | 212 kts | 110° |
| 2026-04-26 14:51 | 26.64064 | -78.95778 | 6371 ft | 218 kts | 110° |
| 2026-04-26 14:51 | 26.63556 | -78.94166 | 5997 ft | 222 kts | 110° |
| 2026-04-26 14:51 | 26.63034 | -78.92530 | 5599 ft | 225 kts | 110° |
| 2026-04-26 14:52 | 26.62492 | -78.90875 | 5174 ft | 228 kts | 110° |
| 2026-04-26 14:52 | 26.61960 | -78.89211 | 4746 ft | 230 kts | 107° |
| 2026-04-26 14:52 | 26.61889 | -78.87434 | 4325 ft | 231 kts | 81° |
| 2026-04-26 14:52 | 26.62472 | -78.85804 | 4095 ft | 222 kts | 61° |
| 2026-04-26 14:53 | 26.63277 | -78.84368 | 3851 ft | 215 kts | 56° |
| 2026-04-26 14:53 | 26.64113 | -78.83012 | 3597 ft | 210 kts | 55° |
| 2026-04-26 14:53 | 26.64948 | -78.81692 | 3346 ft | 207 kts | 55° |
| 2026-04-26 14:53 | 26.65779 | -78.80390 | 3094 ft | 205 kts | 55° |
| 2026-04-26 14:54 | 26.66607 | -78.79100 | 2842 ft | 203 kts | 55° |
| 2026-04-26 14:54 | 26.67431 | -78.77827 | 2592 ft | 202 kts | 55° |
| 2026-04-26 14:54 | 26.68257 | -78.76558 | 2342 ft | 201 kts | 55° |
| 2026-04-26 14:54 | 26.69082 | -78.75298 | 2091 ft | 200 kts | 55° |
| 2026-04-26 14:55 | 26.69896 | -78.74068 | 2008 ft | 190 kts | 54° |
| 2026-04-26 14:55 | 26.70653 | -78.72929 | 2073 ft | 177 kts | 55° |
| 2026-04-26 14:55 | 26.71227 | -78.71760 | 2095 ft | 168 kts | 67° |
| 2026-04-26 14:55 | 26.71664 | -78.70574 | 2095 ft | 163 kts | 72° |
| 2026-04-26 14:56 | 26.72000 | -78.69388 | 2097 ft | 159 kts | 75° |
| 2026-04-26 14:56 | 26.72233 | -78.68195 | 2098 ft | 155 kts | 83° |
| 2026-04-26 14:56 | 26.72327 | -78.67004 | 2098 ft | 153 kts | 91° |
| 2026-04-26 14:56 | 26.72301 | -78.65824 | 2095 ft | 151 kts | 99° |
| 2026-04-26 14:57 | 26.72019 | -78.64685 | 2119 ft | 157 kts | 111° |
| 2026-04-26 14:57 | 26.71602 | -78.63514 | 2108 ft | 167 kts | 120° |
| 2026-04-26 14:57 | 26.70935 | -78.62428 | 2116 ft | 172 kts | 129° |
| 2026-04-26 14:57 | 26.70183 | -78.61361 | 2107 ft | 177 kts | 130° |
| 2026-04-26 14:58 | 26.69406 | -78.60278 | 2104 ft | 180 kts | 130° |
| 2026-04-26 14:58 | 26.68614 | -78.59180 | 2101 ft | 183 kts | 130° |
| 2026-04-26 14:58 | 26.67750 | -78.58138 | 2094 ft | 183 kts | 143° |
| 2026-04-26 14:58 | 26.66661 | -78.57424 | 2113 ft | 183 kts | 154° |
| 2026-04-26 14:59 | 26.65507 | -78.56812 | 2101 ft | 184 kts | 157° |
| 2026-04-26 14:59 | 26.64284 | -78.56447 | 2107 ft | 181 kts | 170° |
| 2026-04-26 14:59 | 26.63066 | -78.56541 | 2093 ft | 175 kts | 199° |
| 2026-04-26 14:59 | 26.62706 | -78.56740 | 2095 ft | 172 kts | 210° |
| 2026-04-26 15:00 | 26.61586 | -78.58387 | 2078 ft | 151 kts | 238° |
| 2026-04-26 15:00 | 26.61094 | -78.59311 | 2040 ft | 130 kts | 237° |
| 2026-04-26 15:00 | 26.60638 | -78.60153 | 1897 ft | 128 kts | 237° |
| 2026-04-26 15:00 | 26.60227 | -78.61016 | 1773 ft | 128 kts | 239° |
| 2026-04-26 15:01 | 26.59777 | -78.61883 | 1546 ft | 130 kts | 237° |
| 2026-04-26 15:01 | 26.59473 | -78.62453 | 1428 ft | 127 kts | 237° |
| 2026-04-26 15:01 | 26.59012 | -78.63283 | 1229 ft | 126 kts | 237° |
| 2026-04-26 15:01 | 26.58570 | -78.64118 | 1041 ft | 124 kts | 238° |
| 2026-04-26 15:02 | 26.58170 | -78.64962 | 860 ft | 123 kts | 239° |
| 2026-04-26 15:02 | 26.57760 | -78.65797 | 683 ft | 122 kts | 238° |
| 2026-04-26 15:02 | 26.57352 | -78.66612 | 529 ft | 121 kts | 238° |
| 2026-04-26 15:02 | 26.56944 | -78.67433 | 351 ft | 120 kts | 238° |
| 2026-04-26 15:03 | 26.56534 | -78.68231 | 184 ft | 116 kts | 238° |
| 2026-04-26 15:03 | 26.56164 | -78.68974 | 62 ft | 104 kts | 239° |
| 2026-04-26 15:03 | 26.55849 | -78.69607 | 16 ft | 81 kts | 239° |
| 2026-04-26 15:03 | 26.55615 | -78.70071 | 16 ft | 58 kts | 241° |
| 2026-04-26 15:04 | 26.55449 | -78.70408 | 16 ft | 41 kts | 241° |
| 2026-04-26 15:04 | 26.55328 | -78.70660 | 16 ft | 33 kts | 240° |
| 2026-04-26 15:04 | 26.55231 | -78.70857 | 16 ft | 26 kts | 239° |
| 2026-04-26 15:04 | 26.55128 | -78.70991 | 16 ft | 16 kts | 194° |
| 2026-04-26 15:05 | 26.55001 | -78.71000 | 16 ft | 17 kts | 185° |
| 2026-04-26 15:05 | 26.54941 | -78.71002 | 16 ft | 9 kts | 174° |
| 2026-04-26 15:05 | 26.54894 | -78.70955 | 16 ft | 17 kts | 109° |
| 2026-04-26 15:05 | 26.54881 | -78.70812 | 16 ft | 22 kts | 93° |
| 2026-04-26 15:06 | 26.54872 | -78.70628 | 16 ft | 22 kts | 90° |
| 2026-04-26 15:06 | 26.54872 | -78.70479 | 16 ft | 13 kts | 95° |
| 2026-04-26 15:06 | 26.54851 | -78.70447 | 16 ft | 0 kts | 149° |
| 2026-04-26 15:06 | 26.54822 | -78.70426 | 16 ft | 2 kts | 146° |
| 2026-04-26 15:07 | 26.54788 | -78.70395 | 16 ft | 0 kts | 81° |